Terminal Aerodrome Forecast
Issued by NWS

Home | Current Version | Previous Version | Text Only | Print | Product List | Glossary On
Versions: 1 2 3 4 5 6 7 8 9 10 11 12 13 14 15 16 17 18
000
FTUS43 KBIS 211141
TAFMOT
TAF
KMOT 211141Z 2112/2212 30017G24KT P6SM SCT020
      TEMPO 2112/2116 BKN018
     FM211600 28014G19KT P6SM FEW020 FEW300
     FM212200 28009KT P6SM FEW200
     FM220200 23006KT P6SM SCT250
     FM220500 17007KT P6SM BKN250=

USA.gov is the U.S. government's official web portal to all federal, state and local government web resources and services.